Time;durP1;ratioP1;P1;durP2;ratioP2;P2;SDS_P1;SDS_P2;PMS_P1;PMS_P2;Temp;Humidity;BMP_temperature;BMP_pressure;BME280_temperature;BME280_humidity;BME280_pressure;Samples;Min_cycle;Max_cycle;Signal;HPM_P1;HPM_P2
2021/03/14 00:01:21;;;;;;;0.65;0.65;;;;;;;3.37;100.00;98569.81;4990586;28;20062;-80
2021/03/14 00:04:24;;;;;;;1.55;0.95;;;;;;;3.41;100.00;98576.72;4992484;28;20065;-80
2021/03/14 00:07:28;;;;;;;1.23;0.70;;;;;;;3.51;100.00;98588.50;4992087;28;20065;-80
2021/03/14 00:10:32;;;;;;;1.02;1.02;;;;;;;3.60;100.00;98591.22;4992092;28;20058;-80
2021/03/14 00:13:37;;;;;;;2.47;0.70;;;;;;;3.60;100.00;98591.22;4991971;28;20061;-81
2021/03/14 00:16:41;;;;;;;0.60;0.60;;;;;;;3.65;100.00;98610.66;5006338;28;20061;-80
2021/03/14 00:19:44;;;;;;;0.70;0.65;;;;;;;3.69;100.00;98624.25;5011295;28;20061;-81
2021/03/14 00:22:48;;;;;;;8.13;0.80;;;;;;;3.73;100.00;98614.63;5011593;28;20064;-80
2021/03/14 00:25:53;;;;;;;0.95;0.50;;;;;;;3.75;100.00;98625.16;5011557;28;20411;-81
2021/03/14 00:28:56;;;;;;;0.45;0.45;;;;;;;3.81;100.00;98637.13;5010626;28;20065;-81
2021/03/14 00:32:02;;;;;;;1.95;1.08;;;;;;;3.81;100.00;98637.13;5010574;28;20073;-81
2021/03/14 00:35:09;;;;;;;2.10;0.80;;;;;;;3.83;100.00;98660.19;5011336;28;20061;-81
2021/03/14 00:38:13;;;;;;;0.63;0.63;;;;;;;3.93;100.00;98666.47;5010385;28;20060;-80
2021/03/14 00:41:16;;;;;;;12.48;1.67;;;;;;;3.99;100.00;98672.13;5011301;28;20060;-81
2021/03/14 00:44:20;;;;;;;0.70;0.70;;;;;;;3.99;100.00;98677.63;5010431;28;20064;-81
2021/03/14 00:47:24;;;;;;;7.40;1.25;;;;;;;3.99;100.00;98689.44;5011187;28;20519;-81
2021/03/14 00:50:27;;;;;;;0.45;0.45;;;;;;;3.99;100.00;98697.69;5011498;28;20065;-81
2021/03/14 00:53:31;;;;;;;1.10;0.93;;;;;;;3.98;100.00;98693.41;5010328;28;20057;-81
2021/03/14 00:56:34;;;;;;;1.55;0.70;;;;;;;4.01;100.00;98703.50;5009498;28;20518;-81
2021/03/14 00:59:38;;;;;;;2.63;0.88;;;;;;;4.04;100.00;98710.09;5010769;28;20424;-81
2021/03/14 01:02:41;;;;;;;1.02;0.98;;;;;;;4.09;100.00;98720.50;5010576;28;20527;-81
2021/03/14 01:05:45;;;;;;;1.45;1.35;;;;;;;4.17;100.00;98738.25;5010937;28;20064;-81
2021/03/14 01:08:51;;;;;;;0.57;0.43;;;;;;;4.16;100.00;98742.97;5010347;28;20061;-81
2021/03/14 01:11:54;;;;;;;0.95;0.95;;;;;;;4.14;100.00;98744.66;5009743;28;20056;-81
2021/03/14 01:14:58;;;;;;;4.63;0.40;;;;;;;4.15;100.00;98744.22;5010657;28;20081;-81
2021/03/14 01:18:03;;;;;;;0.60;0.60;;;;;;;4.16;100.00;98767.78;5010625;28;20432;-81
2021/03/14 01:21:07;;;;;;;1.20;1.17;;;;;;;4.16;100.00;98773.28;5010401;28;20061;-81
2021/03/14 01:24:11;;;;;;;0.43;0.20;;;;;;;4.19;100.00;98766.88;5010616;28;20072;-80
2021/03/14 01:27:15;;;;;;;3.03;0.47;;;;;;;4.17;100.00;98785.84;5010687;28;20534;-81
2021/03/14 01:30:20;;;;;;;3.55;0.63;;;;;;;4.25;100.00;98784.31;5010153;28;20519;-81
2021/03/14 01:33:23;;;;;;;0.70;0.70;;;;;;;4.30;100.00;98797.50;5010122;28;20412;-81
2021/03/14 01:36:27;;;;;;;15.80;0.63;;;;;;;4.33;100.00;98796.56;5010412;28;20077;-81
2021/03/14 01:39:31;;;;;;;0.90;0.90;;;;;;;4.36;100.00;98808.66;5010103;28;20421;-80
2021/03/14 01:42:35;;;;;;;0.57;0.38;;;;;;;4.34;100.00;98814.66;5010296;28;20554;-82
2021/03/14 01:45:39;;;;;;;0.82;0.52;;;;;;;4.29;100.00;98818.00;5009229;28;20420;-81
2021/03/14 01:48:43;;;;;;;4.53;1.33;;;;;;;4.32;100.00;98833.63;5009079;28;20064;-81
2021/03/14 01:51:47;;;;;;;7.85;0.73;;;;;;;4.32;100.00;98822.59;5010206;28;20168;-81
2021/03/14 01:54:50;;;;;;;1.35;0.93;;;;;;;4.26;100.00;98829.97;5010386;28;20069;-81
2021/03/14 01:57:54;;;;;;;0.60;0.60;;;;;;;4.28;100.00;98840.50;5009280;28;20065;-82
2021/03/14 02:00:58;;;;;;;0.50;0.50;;;;;;;4.26;100.00;98838.22;5009828;28;20069;-82
2021/03/14 02:04:01;;;;;;;7.10;1.75;;;;;;;4.24;100.00;98845.41;5009715;28;20057;-81
2021/03/14 02:07:04;;;;;;;2.47;0.95;;;;;;;4.20;100.00;98842.03;5009515;28;20065;-82
2021/03/14 02:10:10;;;;;;;20.02;2.05;;;;;;;4.17;100.00;98854.75;5010749;28;20056;-80
2021/03/14 02:13:16;;;;;;;10.30;0.95;;;;;;;4.23;100.00;98858.41;5013875;28;20064;-81
2021/03/14 02:16:22;;;;;;;1.08;1.02;;;;;;;4.24;100.00;98864.69;5013268;28;20084;-80
2021/03/14 02:19:32;;;;;;;0.40;0.40;;;;;;;4.26;100.00;98863.03;5013223;28;20056;-81
2021/03/14 02:22:40;;;;;;;2.45;1.02;;;;;;;4.29;100.00;98873.13;5013615;28;20526;-82
2021/03/14 02:25:48;;;;;;;1.75;0.65;;;;;;;4.32;100.00;98876.94;5014148;28;20064;-81
2021/03/14 02:28:54;;;;;;;0.70;0.70;;;;;;;4.29;100.00;98884.13;5013711;28;20065;-82
2021/03/14 02:32:00;;;;;;;0.77;0.77;;;;;;;4.23;100.00;98880.47;5013531;28;20656;-81
2021/03/14 02:35:07;;;;;;;0.47;0.47;;;;;;;4.22;100.00;98889.94;5012376;28;20053;-81
2021/03/14 02:38:11;;;;;;;1.27;1.13;;;;;;;4.24;100.00;98898.53;5012568;28;20068;-81
2021/03/14 02:41:16;;;;;;;8.18;2.10;;;;;;;4.23;100.00;98916.28;5013402;28;20061;-82
2021/03/14 02:44:23;;;;;;;1.90;1.00;;;;;;;4.22;100.00;98916.75;5012616;28;20523;-82
2021/03/14 02:47:27;;;;;;;4.90;1.65;;;;;;;4.19;100.00;98912.91;5012727;28;20606;-81
2021/03/14 02:50:31;;;;;;;2.35;1.35;;;;;;;4.23;100.00;98923.78;5013519;28;20069;-81
2021/03/14 02:53:36;;;;;;;1.33;0.75;;;;;;;4.26;100.00;98931.91;5013304;28;20061;-82
2021/03/14 02:56:40;;;;;;;2.08;1.25;;;;;;;4.26;100.00;98933.91;5013088;28;20065;-81
2021/03/14 02:59:43;;;;;;;4.07;0.73;;;;;;;4.24;100.00;98948.13;5012944;28;20519;-81
2021/03/14 03:02:50;;;;;;;0.60;0.60;;;;;;;4.24;100.00;98952.88;5012770;28;20773;-81
2021/03/14 03:06:01;;;;;;;0.80;0.80;;;;;;;4.23;100.00;98957.63;5013107;28;20073;-81
2021/03/14 03:09:06;;;;;;;3.13;1.58;;;;;;;4.25;100.00;98971.69;5012293;28;20076;-81
2021/03/14 03:12:11;;;;;;;4.03;1.55;;;;;;;4.29;100.00;98966.81;5011912;28;20057;-81
2021/03/14 03:15:19;;;;;;;8.18;1.75;;;;;;;4.32;100.00;98982.44;5012992;28;20053;-81
2021/03/14 03:18:24;;;;;;;4.80;1.10;;;;;;;4.35;100.00;98976.00;5012320;28;20060;-81
2021/03/14 03:21:27;;;;;;;10.55;1.58;;;;;;;4.35;100.00;98978.75;5011637;28;20551;-82
2021/03/14 03:24:31;;;;;;;2.17;1.25;;;;;;;4.35;100.00;98972.50;5012489;28;20121;-81
2021/03/14 03:27:36;;;;;;;6.18;1.25;;;;;;;4.36;100.00;98983.06;5012509;28;20061;-81
2021/03/14 03:30:40;;;;;;;1.40;1.25;;;;;;;4.38;100.00;98983.38;5012788;28;20069;-82
2021/03/14 03:33:43;;;;;;;0.73;0.73;;;;;;;4.38;100.00;99007.41;5012379;28;20420;-82
2021/03/14 03:36:47;;;;;;;1.75;1.38;;;;;;;4.36;100.00;99032.69;5012234;28;20068;-82
2021/03/14 03:39:50;;;;;;;0.40;0.40;;;;;;;4.16;100.00;99040.53;5011144;28;20065;-82
2021/03/14 03:43:21;;;;;;;0.70;0.70;;;;;;;3.80;100.00;99029.34;5011319;28;20060;-81
2021/03/14 03:46:26;;;;;;;0.95;0.55;;;;;;;3.56;100.00;99014.50;5011569;28;20061;-80
2021/03/14 03:49:32;;;;;;;0.50;0.50;;;;;;;3.40;100.00;99017.44;5012085;28;20108;-79
2021/03/14 03:52:36;;;;;;;1.58;1.02;;;;;;;3.30;100.00;99018.56;5012293;28;20065;-80
2021/03/14 03:55:43;;;;;;;0.60;0.60;;;;;;;3.26;100.00;99028.94;5012173;28;20065;-80
2021/03/14 03:58:48;;;;;;;0.40;0.40;;;;;;;3.29;100.00;99028.81;5011936;28;20077;-79
2021/03/14 04:01:53;;;;;;;0.38;0.38;;;;;;;3.32;100.00;99038.16;5011879;28;20061;-79
2021/03/14 04:04:56;;;;;;;0.50;0.47;;;;;;;3.36;100.00;99050.56;5012056;28;20061;-79
2021/03/14 04:08:00;;;;;;;1.30;0.73;;;;;;;3.37;100.00;99052.13;5011847;28;20061;-79
2021/03/14 04:11:10;;;;;;;2.05;0.38;;;;;;;3.37;100.00;99065.13;5011669;28;20065;-79
2021/03/14 04:14:15;;;;;;;0.50;0.50;;;;;;;3.39;100.00;99062.69;5012000;28;20061;-79
2021/03/14 04:17:19;;;;;;;9.43;1.02;;;;;;;3.39;100.00;99066.22;5010999;28;20061;-80
2021/03/14 04:20:29;;;;;;;7.32;1.13;;;;;;;3.42;100.00;99075.56;5011250;28;20519;-79
2021/03/14 04:23:36;;;;;;;4.28;1.20;;;;;;;3.45;100.00;99071.91;5011864;28;20061;-79
2021/03/14 04:26:45;;;;;;;2.05;0.80;;;;;;;3.52;100.00;99090.94;5010868;28;20065;-79
2021/03/14 04:29:50;;;;;;;1.40;0.43;;;;;;;3.58;100.00;99098.16;5010644;28;20065;-79
2021/03/14 04:32:55;;;;;;;2.80;1.88;;;;;;;3.63;100.00;99094.06;5010396;28;20056;-79
2021/03/14 04:36:02;;;;;;;39.92;2.38;;;;;;;3.69;100.00;99089.53;5011580;28;20053;-81
2021/03/14 04:39:06;;;;;;;1.13;1.02;;;;;;;3.73;100.00;99090.16;5011315;28;20073;-78
2021/03/14 04:42:11;;;;;;;2.22;2.00;;;;;;;3.82;100.00;99101.25;5011481;28;20072;-77
2021/03/14 04:45:15;;;;;;;20.88;2.40;;;;;;;3.90;100.00;99110.03;5011093;28;20060;-77
2021/03/14 04:48:22;;;;;;;15.15;1.25;;;;;;;3.94;100.00;99116.97;5010606;28;20061;-78
2021/03/14 04:51:27;;;;;;;1.08;0.80;;;;;;;3.98;100.00;99123.09;5011089;28;20068;-78
2021/03/14 04:54:32;;;;;;;0.30;0.30;;;;;;;4.02;100.00;99140.28;5011362;28;20065;-77
2021/03/14 04:57:38;;;;;;;9.52;1.40;;;;;;;4.04;100.00;99137.84;5011097;28;20065;-78
2021/03/14 05:00:43;;;;;;;0.30;0.22;;;;;;;4.04;100.00;99145.31;4998261;28;20076;-80
2021/03/14 05:03:51;;;;;;;11.60;1.63;;;;;;;4.04;100.00;99157.13;5008896;28;20064;-78
2021/03/14 05:06:56;;;;;;;0.68;0.68;;;;;;;3.99;100.00;99157.69;5008162;28;20077;-79
2021/03/14 05:10:00;;;;;;;3.97;0.82;;;;;;;4.00;100.00;99167.50;5009627;28;20061;-78
2021/03/14 05:13:04;;;;;;;10.25;1.17;;;;;;;4.04;100.00;99164.59;5010627;28;20056;-77
2021/03/14 05:16:09;;;;;;;21.88;1.80;;;;;;;4.06;100.00;99162.16;5008764;28;20061;-78
2021/03/14 05:19:13;;;;;;;1.35;1.00;;;;;;;4.06;100.00;99178.69;5010739;28;20057;-77
2021/03/14 05:22:21;;;;;;;4.05;0.82;;;;;;;3.98;100.00;99189.22;5010166;28;20057;-79
2021/03/14 05:25:24;;;;;;;5.40;1.73;;;;;;;3.95;100.00;99187.34;5009847;28;20416;-79
2021/03/14 05:28:29;;;;;;;1.42;1.02;;;;;;;3.96;100.00;99191.66;5009507;28;20076;-80
2021/03/14 05:31:36;;;;;;;3.20;0.95;;;;;;;3.98;100.00;99203.00;5009527;28;20369;-79
2021/03/14 05:34:40;;;;;;;3.35;0.85;;;;;;;4.00;100.00;99214.31;5010386;28;20057;-79
2021/03/14 05:37:44;;;;;;;2.08;1.40;;;;;;;4.04;100.00;99212.22;5000956;28;20060;-80
2021/03/14 05:40:48;;;;;;;1.10;0.98;;;;;;;4.05;100.00;99219.25;5009992;28;20057;-80
2021/03/14 05:43:52;;;;;;;0.55;0.55;;;;;;;4.08;100.00;99221.13;5010717;28;20061;-76
2021/03/14 05:46:56;;;;;;;1.40;0.40;;;;;;;4.09;100.00;99228.19;5010480;28;20065;-76
2021/03/14 05:49:59;;;;;;;1.55;0.70;;;;;;;4.13;100.00;99239.84;5010019;28;20061;-76
2021/03/14 05:53:03;;;;;;;10.40;1.83;;;;;;;4.11;100.00;99231.25;5010380;28;20065;-77
2021/03/14 05:56:09;;;;;;;0.95;0.88;;;;;;;4.10;100.00;99249.00;5009932;28;20126;-76
2021/03/14 05:59:15;;;;;;;0.77;0.77;;;;;;;4.10;100.00;99259.22;5010081;28;20065;-76
2021/03/14 06:02:20;;;;;;;1.05;1.02;;;;;;;4.11;100.00;99269.84;5009394;28;20061;-76
2021/03/14 06:05:28;;;;;;;1.75;1.10;;;;;;;4.11;100.00;99275.34;5009993;28;20057;-76
2021/03/14 06:08:31;;;;;;;1.33;1.23;;;;;;;4.16;100.00;99271.25;5009733;28;20073;-76
2021/03/14 06:11:35;;;;;;;0.73;0.73;;;;;;;4.17;100.00;99284.56;5010049;28;20061;-75
2021/03/14 06:14:40;;;;;;;16.77;1.75;;;;;;;4.13;100.00;99300.47;5009569;28;20408;-75
2021/03/14 06:17:44;;;;;;;1.02;1.00;;;;;;;4.14;100.00;99299.22;4990528;28;20532;-76
2021/03/14 06:20:47;;;;;;;2.25;0.77;;;;;;;4.19;100.00;99304.19;4990507;28;20065;-75
2021/03/14 06:24:10;;;;;;;6.25;1.30;;;;;;;4.21;100.00;99306.47;4990582;28;20082;-76
2021/03/14 06:27:27;;;;;;;0.50;0.50;;;;;;;4.20;100.00;99308.47;4990295;28;20061;-75
2021/03/14 06:30:32;;;;;;;1.23;0.77;;;;;;;4.23;100.00;99315.84;4990439;28;20428;-76
2021/03/14 06:33:36;;;;;;;0.88;0.73;;;;;;;4.21;100.00;99326.56;4990264;28;20053;-75
2021/03/14 06:36:39;;;;;;;9.27;1.27;;;;;;;4.20;100.00;99324.25;4990339;28;20524;-75
2021/03/14 06:39:46;;;;;;;2.70;1.90;;;;;;;4.20;100.00;99330.50;4989518;28;20069;-75
2021/03/14 06:42:49;;;;;;;9.85;1.27;;;;;;;4.24;100.00;99327.66;4989621;28;20082;-76
2021/03/14 06:45:52;;;;;;;1.00;0.55;;;;;;;4.25;100.00;99332.72;4990852;28;20061;-76
2021/03/14 06:49:09;;;;;;;8.88;1.10;;;;;;;4.28;100.00;99334.59;4989965;28;20745;-76
2021/03/14 06:52:13;;;;;;;0.73;0.73;;;;;;;4.29;100.00;99335.34;4989985;28;20419;-76
2021/03/14 06:55:25;;;;;;;0.57;0.57;;;;;;;4.32;100.00;99343.50;4990166;28;20077;-76
2021/03/14 06:58:34;;;;;;;7.90;1.38;;;;;;;4.27;100.00;99357.84;4992950;28;20069;-76
2021/03/14 07:01:38;;;;;;;0.65;0.65;;;;;;;4.30;100.00;99358.94;4994453;28;20053;-75
2021/03/14 07:04:47;;;;;;;5.88;1.38;;;;;;;4.29;100.00;99369.19;4993641;28;20070;-75
2021/03/14 07:07:51;;;;;;;1.02;1.02;;;;;;;4.29;100.00;99368.41;4993526;28;20519;-75
2021/03/14 07:10:54;;;;;;;1.75;1.60;;;;;;;4.28;100.00;99370.41;4993097;28;20061;-76
2021/03/14 07:13:58;;;;;;;0.75;0.75;;;;;;;4.32;100.00;99379.34;4992934;28;20065;-75
2021/03/14 07:17:02;;;;;;;6.93;1.88;;;;;;;4.35;100.00;99389.44;5009992;28;20069;-79
2021/03/14 07:20:17;;;;;;;11.43;2.40;;;;;;;4.37;100.00;99394.53;5011365;28;20430;-78
2021/03/14 07:23:34;;;;;;;2.60;1.65;;;;;;;4.41;100.00;99393.22;5011984;28;20444;-77
2021/03/14 07:26:48;;;;;;;2.05;1.48;;;;;;;4.42;100.00;99399.47;5012491;28;20061;-78
2021/03/14 07:29:53;;;;;;;3.90;1.25;;;;;;;4.43;100.00;99399.03;5011273;28;20061;-78
2021/03/14 07:32:56;;;;;;;3.20;1.10;;;;;;;4.43;100.00;99406.53;5013077;28;20080;-78
2021/03/14 07:36:00;;;;;;;3.88;0.77;;;;;;;4.48;100.00;99420.50;5012753;28;20420;-79
2021/03/14 07:39:05;;;;;;;0.60;0.50;;;;;;;4.49;100.00;99426.81;5012425;28;20077;-78
2021/03/14 07:42:10;;;;;;;7.28;1.20;;;;;;;4.51;100.00;99430.66;5011658;28;20061;-79
2021/03/14 07:45:16;;;;;;;5.15;1.45;;;;;;;4.57;100.00;99439.91;5012433;28;20080;-78
2021/03/14 07:48:20;;;;;;;10.60;1.23;;;;;;;4.61;100.00;99446.06;5005348;28;20124;-79
2021/03/14 07:51:24;;;;;;;2.55;0.85;;;;;;;4.59;100.00;99448.50;5011774;28;20065;-79
2021/03/14 07:54:43;;;;;;;2.28;0.85;;;;;;;4.63;100.00;99469.69;5022671;28;20076;-79
2021/03/14 07:57:48;;;;;;;0.80;0.63;;;;;;;4.66;100.00;99463.28;5011215;28;20073;-79
2021/03/14 08:00:52;;;;;;;6.80;1.63;;;;;;;4.69;100.00;99462.38;5011971;28;20061;-79
2021/03/14 08:03:56;;;;;;;4.18;0.80;;;;;;;4.74;100.00;99459.06;5011456;28;20527;-78
2021/03/14 08:07:00;;;;;;;0.35;0.35;;;;;;;4.81;100.00;99475.41;5011354;28;20420;-79
2021/03/14 08:10:06;;;;;;;1.88;0.90;;;;;;;4.85;100.00;99481.56;5011883;28;20412;-79
2021/03/14 08:13:16;;;;;;;1.40;1.30;;;;;;;4.86;100.00;99491.34;5011521;28;20531;-78
2021/03/14 08:16:20;;;;;;;0.98;0.98;;;;;;;4.86;100.00;99477.56;5012887;28;20064;-79
2021/03/14 08:19:40;;;;;;;7.47;0.82;;;;;;;4.87;100.00;99490.16;5012735;28;20065;-78
2021/03/14 08:22:45;;;;;;;0.60;0.50;;;;;;;4.92;100.00;99495.09;5012123;28;20065;-79
2021/03/14 08:25:50;;;;;;;0.57;0.55;;;;;;;4.93;100.00;99493.88;5011938;28;20060;-78
2021/03/14 08:28:55;;;;;;;2.53;1.08;;;;;;;4.89;100.00;99501.50;5011829;28;20065;-79
2021/03/14 08:31:58;;;;;;;12.00;2.97;;;;;;;4.89;100.00;99505.06;5012457;28;20065;-79
2021/03/14 08:35:03;;;;;;;3.85;1.60;;;;;;;4.98;100.00;99512.66;5012187;28;20061;-78
2021/03/14 08:38:33;;;;;;;1.13;0.70;;;;;;;5.03;100.00;99514.81;5012048;28;20076;-79
2021/03/14 08:41:47;;;;;;;2.50;1.35;;;;;;;5.09;100.00;99538.63;4998274;28;20069;-79
2021/03/14 08:44:50;;;;;;;4.80;0.65;;;;;;;5.19;100.00;99550.56;4991654;28;20085;-80
2021/03/14 08:47:54;;;;;;;7.55;1.67;;;;;;;5.31;100.00;99552.47;4993230;28;20062;-80
2021/03/14 08:50:58;;;;;;;1.55;0.65;;;;;;;5.41;100.00;99551.34;4992491;28;20531;-79
2021/03/14 08:54:01;;;;;;;10.13;1.33;;;;;;;5.47;100.00;99560.59;4992640;28;20524;-79
2021/03/14 08:57:08;;;;;;;2.88;0.73;;;;;;;5.53;100.00;99560.78;4992587;28;20416;-80
2021/03/14 09:00:14;;;;;;;11.23;0.80;;;;;;;5.70;100.00;99568.44;4992085;28;20527;-78
2021/03/14 09:03:17;;;;;;;6.93;0.80;;;;;;;5.92;100.00;99557.41;5006437;28;20060;-79
2021/03/14 09:06:26;;;;;;;7.18;1.27;;;;;;;6.08;100.00;99571.81;5011428;28;20053;-79
2021/03/14 09:09:31;;;;;;;1.23;0.77;;;;;;;6.12;100.00;99579.97;5011200;28;20061;-79
2021/03/14 09:12:34;;;;;;;0.82;0.20;;;;;;;6.24;100.00;99567.31;5010439;28;20515;-80
2021/03/14 09:15:47;;;;;;;0.60;0.43;;;;;;;6.39;100.00;99562.75;4994506;28;20066;-79
2021/03/14 09:18:50;;;;;;;5.05;0.70;;;;;;;6.57;100.00;99565.59;5009318;28;20072;-79
2021/03/14 09:21:59;;;;;;;1.25;0.73;;;;;;;6.61;100.00;99568.97;5010786;28;20065;-78
2021/03/14 09:25:09;;;;;;;18.02;1.35;;;;;;;6.47;100.00;99566.78;5010640;28;20061;-79
2021/03/14 09:28:12;;;;;;;1.55;1.05;;;;;;;6.32;100.00;99574.09;5010405;28;20065;-79
2021/03/14 09:31:15;;;;;;;5.07;1.23;;;;;;;6.22;100.00;99586.31;5010042;28;20057;-78
2021/03/14 09:34:19;;;;;;;0.10;0.10;;;;;;;6.13;100.00;99585.03;5009816;28;20057;-78
2021/03/14 09:37:30;;;;;;;0.75;0.40;;;;;;;6.19;100.00;99581.69;5010879;28;20060;-78
2021/03/14 09:40:36;;;;;;;0.97;0.70;;;;;;;6.24;100.00;99583.88;5010608;28;20065;-78
2021/03/14 09:43:40;;;;;;;0.82;0.80;;;;;;;6.31;100.00;99564.25;5009331;28;20286;-78
2021/03/14 09:46:52;;;;;;;0.40;0.40;;;;;;;6.33;100.00;99579.16;5010749;28;20085;-78
2021/03/14 09:50:14;;;;;;;9.23;0.52;;;;;;;6.36;100.00;99574.72;5010434;28;20057;-77
2021/03/14 09:53:22;;;;;;;3.33;0.98;;;;;;;6.38;100.00;99580.56;5010258;28;20064;-77
2021/03/14 09:56:26;;;;;;;4.25;0.82;;;;;;;6.44;100.00;99573.22;5009034;28;20053;-77
2021/03/14 09:59:30;;;;;;;3.03;1.85;;;;;;;6.50;100.00;99580.47;5009792;28;20061;-77
2021/03/14 10:02:37;;;;;;;6.95;1.00;;;;;;;6.62;100.00;99587.13;5010635;28;20057;-77
2021/03/14 10:05:51;;;;;;;0.45;0.45;;;;;;;6.77;100.00;99588.13;5009311;28;20500;-76
2021/03/14 10:08:54;;;;;;;0.40;0.40;;;;;;;6.87;100.00;99584.91;5009673;28;20057;-77
2021/03/14 10:11:58;;;;;;;0.15;0.15;;;;;;;6.91;100.00;99582.00;5010140;28;20432;-77
2021/03/14 10:15:04;;;;;;;13.65;0.68;;;;;;;6.90;100.00;99580.47;5009556;28;20077;-77
2021/03/14 10:18:09;;;;;;;7.80;0.60;;;;;;;6.85;100.00;99590.13;5010817;28;20519;-77
2021/03/14 10:21:23;;;;;;;0.65;0.30;;;;;;;6.79;100.00;99593.97;5009819;28;20424;-76
2021/03/14 10:24:31;;;;;;;0.77;0.10;;;;;;;6.73;100.00;99601.31;5009724;28;20061;-77
2021/03/14 10:27:35;;;;;;;1.67;1.40;;;;;;;6.68;100.00;99610.22;5010904;28;20065;-76
2021/03/14 10:30:42;;;;;;;0.50;0.45;;;;;;;6.81;100.00;99599.81;5011786;28;20073;-76
2021/03/14 10:33:46;;;;;;;1.25;0.70;;;;;;;6.85;100.00;99611.50;5013286;28;20061;-77
2021/03/14 10:36:51;;;;;;;9.70;1.80;;;;;;;6.94;100.00;99608.78;5013618;28;20538;-75
2021/03/14 10:40:18;;;;;;;1.45;0.75;;;;;;;7.00;100.00;99623.53;5012959;28;20061;-77
2021/03/14 10:43:24;;;;;;;5.93;1.27;;;;;;;7.09;100.00;99609.75;5012347;28;20069;-77
2021/03/14 10:46:34;;;;;;;6.95;1.65;;;;;;;7.20;100.00;99621.16;5014086;28;20065;-77
2021/03/14 10:49:38;;;;;;;5.72;1.65;;;;;;;7.26;100.00;99624.84;5012715;28;20065;-76
2021/03/14 10:52:42;;;;;;;20.67;3.20;;;;;;;7.36;100.00;99620.84;5013442;28;20064;-77
2021/03/14 10:55:46;;;;;;;7.72;1.85;;;;;;;7.49;100.00;99620.75;5009696;28;20064;-77
2021/03/14 10:58:49;;;;;;;6.90;2.05;;;;;;;7.51;100.00;99613.50;5012154;28;20057;-77
2021/03/14 11:02:00;;;;;;;3.40;0.65;;;;;;;7.45;100.00;99615.34;5015588;28;20053;-77
2021/03/14 11:05:04;;;;;;;7.53;1.10;;;;;;;7.44;100.00;99618.56;5013108;28;20065;-78
2021/03/14 11:08:08;;;;;;;14.05;2.00;;;;;;;7.48;100.00;99611.66;5013018;28;20068;-79
2021/03/14 11:11:11;;;;;;;1.85;0.57;;;;;;;7.45;100.00;99620.88;5012189;28;20061;-77
2021/03/14 11:14:35;;;;;;;3.55;0.95;;;;;;;7.34;100.00;99609.47;5012942;28;20061;-78
2021/03/14 11:17:41;;;;;;;5.00;1.10;;;;;;;7.38;100.00;99612.88;4993447;28;20061;-78
2021/03/14 11:20:48;;;;;;;6.13;1.77;;;;;;;7.32;100.00;99609.16;4992740;28;20081;-78
2021/03/14 11:23:52;;;;;;;4.25;0.32;;;;;;;7.31;100.00;99610.41;4993373;28;20061;-78
2021/03/14 11:26:55;;;;;;;3.88;1.35;;;;;;;7.44;100.00;99613.81;4992996;28;20065;-78
2021/03/14 11:29:59;;;;;;;0.20;0.15;;;;;;;7.46;100.00;99627.97;4993589;28;20065;-78
2021/03/14 11:33:03;;;;;;;8.18;0.47;;;;;;;7.29;100.00;99620.41;4993446;28;20427;-78
2021/03/14 11:36:07;;;;;;;4.45;0.45;;;;;;;7.14;100.00;99622.22;4993064;28;20737;-78
2021/03/14 11:39:11;;;;;;;0.50;0.50;;;;;;;7.06;100.00;99624.47;4994022;28;20061;-78
2021/03/14 11:42:15;;;;;;;0.30;0.30;;;;;;;7.00;100.00;99640.16;4992729;28;20073;-77
2021/03/14 11:45:18;;;;;;;0.10;0.10;;;;;;;7.00;100.00;99623.53;4993071;28;20547;-78
2021/03/14 11:48:22;;;;;;;4.70;0.50;;;;;;;6.96;100.00;99636.00;4994874;28;20065;-78
2021/03/14 11:51:26;;;;;;;6.00;0.95;;;;;;;7.01;100.00;99625.09;4992615;28;20065;-77
2021/03/14 11:54:30;;;;;;;17.77;1.23;;;;;;;7.04;100.00;99629.72;4992884;28;20066;-78
2021/03/14 11:57:33;;;;;;;5.03;1.42;;;;;;;7.10;100.00;99638.97;4992207;28;20469;-77
2021/03/14 12:00:37;;;;;;;1.27;0.38;;;;;;;7.15;100.00;99638.34;4993672;28;20074;-78
2021/03/14 12:03:40;;;;;;;2.88;0.43;;;;;;;7.16;100.00;99639.91;4993274;28;20064;-77
2021/03/14 12:06:46;;;;;;;1.17;0.40;;;;;;;7.15;100.00;99641.13;4992654;28;20066;-79
2021/03/14 12:09:49;;;;;;;6.88;0.50;;;;;;;6.85;100.00;99642.72;4992513;28;20070;-79
2021/03/14 12:12:53;;;;;;;0.40;0.30;;;;;;;6.72;100.00;99636.53;4992430;28;20061;-79
2021/03/14 12:15:56;;;;;;;0.65;0.35;;;;;;;6.76;100.00;99641.91;5001077;28;20416;-79
2021/03/14 12:19:00;;;;;;;0.82;0.20;;;;;;;6.72;100.00;99641.28;5011858;28;20061;-79
2021/03/14 12:22:04;;;;;;;0.32;0.20;;;;;;;6.74;100.00;99634.06;5010734;28;20503;-79
2021/03/14 12:25:07;;;;;;;4.85;0.40;;;;;;;6.84;100.00;99632.13;5012075;28;20057;-79
2021/03/14 12:28:11;;;;;;;1.60;0.68;;;;;;;6.99;100.00;99627.56;5011349;28;20125;-79
2021/03/14 12:31:15;;;;;;;0.43;0.43;;;;;;;7.13;100.00;99618.66;5012482;28;20061;-79
2021/03/14 12:34:18;;;;;;;0.70;0.60;;;;;;;7.26;100.00;99619.31;5011020;28;20420;-79
2021/03/14 12:37:22;;;;;;;6.78;0.85;;;;;;;7.37;100.00;99608.56;5010132;28;20056;-79
2021/03/14 12:40:25;;;;;;;1.10;0.40;;;;;;;7.43;100.00;99612.25;5010843;28;20424;-79
2021/03/14 12:43:29;;;;;;;0.47;0.40;;;;;;;7.51;100.00;99605.19;5010744;28;20081;-78
2021/03/14 12:46:33;;;;;;;0.80;0.40;;;;;;;7.60;100.00;99596.88;5011299;28;20065;-78
2021/03/14 12:49:36;;;;;;;5.00;0.40;;;;;;;7.68;100.00;99599.34;5011397;28;20061;-78
2021/03/14 12:52:40;;;;;;;1.33;0.50;;;;;;;7.76;100.00;99589.47;5010923;28;20064;-77
2021/03/14 12:55:44;;;;;;;6.18;0.55;;;;;;;7.82;100.00;99584.88;5011536;28;20061;-79
2021/03/14 12:58:48;;;;;;;6.13;1.13;;;;;;;7.90;100.00;99586.09;5010170;28;20420;-80
2021/03/14 13:01:51;;;;;;;0.47;0.40;;;;;;;7.98;100.00;99573.44;5010655;28;20057;-80
2021/03/14 13:04:54;;;;;;;1.73;1.05;;;;;;;7.99;100.00;99564.66;5002784;28;20081;-77
2021/03/14 13:07:58;;;;;;;3.72;0.20;;;;;;;7.93;100.00;99562.97;4991270;28;20058;-78
2021/03/14 13:11:01;;;;;;;1.70;0.73;;;;;;;7.83;100.00;99562.22;5008657;28;20064;-78
2021/03/14 13:14:05;;;;;;;9.88;1.35;;;;;;;7.83;100.00;99567.00;5010608;28;20408;-79
2021/03/14 13:17:08;;;;;;;4.75;0.88;;;;;;;7.89;100.00;99565.91;5001642;28;20057;-79
2021/03/14 13:20:14;;;;;;;3.00;0.47;;;;;;;7.94;100.00;99573.63;5000174;28;20523;-79
2021/03/14 13:23:19;;;;;;;0.32;0.32;;;;;;;7.96;100.00;99562.06;4997882;28;20069;-79
2021/03/14 13:26:22;;;;;;;11.98;0.20;;;;;;;7.97;100.00;99558.06;4990967;28;20061;-78
2021/03/14 13:29:26;;;;;;;0.65;0.25;;;;;;;7.92;100.00;99553.13;4990880;28;20073;-78
2021/03/14 13:32:29;;;;;;;3.58;0.25;;;;;;;7.99;100.00;99558.38;4991037;28;20061;-79
2021/03/14 13:35:33;;;;;;;1.48;0.32;;;;;;;7.97;100.00;99544.94;4990382;28;20069;-79
2021/03/14 13:38:37;;;;;;;0.52;0.43;;;;;;;7.91;100.00;99552.34;4990635;28;20523;-78
2021/03/14 13:41:41;;;;;;;0.25;0.20;;;;;;;7.85;100.00;99547.91;4990566;28;20061;-79
2021/03/14 13:44:44;;;;;;;0.35;0.25;;;;;;;7.84;100.00;99541.56;4994702;28;20062;-78
2021/03/14 13:47:48;;;;;;;1.38;0.68;;;;;;;7.79;100.00;99552.53;5000897;28;20064;-78
2021/03/14 13:50:53;;;;;;;0.98;0.13;;;;;;;7.68;100.00;99560.53;5005665;28;20053;-79
2021/03/14 13:53:56;;;;;;;0.30;0.30;;;;;;;7.50;100.00;99567.63;5010199;28;20527;-78
2021/03/14 13:56:59;;;;;;;0.20;0.20;;;;;;;7.39;100.00;99559.00;5009657;28;20416;-79
2021/03/14 14:00:05;;;;;;;2.28;0.28;;;;;;;7.28;100.00;99567.00;5009337;28;20535;-79
2021/03/14 14:03:10;;;;;;;0.17;0.17;;;;;;;7.14;100.00;99561.28;5001174;28;20053;-80
2021/03/14 14:06:13;;;;;;;9.48;0.52;;;;;;;7.01;100.00;99571.72;4992895;28;20062;-79
2021/03/14 14:09:17;;;;;;;0.25;0.20;;;;;;;6.82;100.00;99557.84;4994926;28;20412;-79
2021/03/14 14:12:21;;;;;;;1.95;0.43;;;;;;;6.58;100.00;99564.38;4993656;28;20065;-79
2021/03/14 14:15:25;;;;;;;2.80;0.70;;;;;;;6.42;100.00;99567.38;4998860;28;20073;-80
2021/03/14 14:18:28;;;;;;;6.43;1.08;;;;;;;6.37;100.00;99562.41;5013793;28;20057;-79
2021/03/14 14:51:36;;;;;;;0.70;0.43;;;;;;;5.73;100.00;99541.91;5028202;27;20361;-76
2021/03/14 14:54:40;;;;;;;4.57;0.60;;;;;;;5.66;100.00;99539.41;4988107;28;20070;-77
2021/03/14 14:57:43;;;;;;;2.53;0.85;;;;;;;5.56;100.00;99540.56;4988451;28;20427;-78
2021/03/14 15:00:46;;;;;;;0.40;0.40;;;;;;;5.50;100.00;99548.66;5019341;28;20060;-78